createdAt,value
2023-08-22T00:00:52.000Z,17.25
2023-08-22T00:05:53.981Z,12.18
2023-08-22T00:10:58.364Z,11.95
2023-08-22T00:16:02.040Z,20.88
2023-08-22T00:21:04.026Z,12.63
2023-08-22T00:26:05.881Z,12.00
2023-08-22T00:31:07.841Z,11.70
2023-08-22T00:36:09.740Z,15.80
2023-08-22T00:41:11.566Z,16.38
2023-08-22T00:46:13.695Z,18.92
2023-08-22T00:56:17.744Z,10.68
2023-08-22T01:01:19.738Z,11.85
2023-08-22T01:06:44.404Z,9.80
2023-08-22T01:11:46.597Z,13.13
2023-08-22T01:21:51.610Z,8.27
2023-08-22T01:26:53.586Z,11.07
2023-08-22T01:32:07.990Z,12.80
2023-08-22T01:37:10.409Z,9.65
2023-08-22T01:42:12.311Z,13.82
2023-08-22T01:47:14.204Z,10.70
2023-08-22T01:52:16.160Z,10.73
2023-08-22T01:57:18.090Z,12.20
2023-08-22T02:02:20.100Z,11.38
2023-08-22T02:07:22.071Z,15.57
2023-08-22T02:12:23.982Z,15.95
2023-08-22T02:17:25.898Z,12.55
2023-08-22T02:22:27.835Z,16.42
2023-08-22T02:27:29.681Z,14.40
2023-08-22T02:32:31.622Z,15.00
2023-08-22T02:37:33.560Z,13.77
2023-08-22T02:42:35.381Z,18.67
2023-08-22T02:47:37.436Z,14.25
2023-08-22T02:57:41.212Z,15.30
2023-08-22T03:02:43.373Z,17.73
2023-08-22T03:07:45.240Z,17.17
2023-08-22T03:12:47.093Z,19.75
2023-08-22T03:17:48.996Z,20.27
2023-08-22T03:22:50.909Z,19.33
2023-08-22T03:32:54.480Z,17.90
2023-08-22T03:42:57.989Z,16.42
2023-08-22T03:47:59.901Z,19.77
2023-08-22T03:53:01.916Z,20.55
2023-08-22T03:58:03.973Z,20.60
2023-08-22T04:03:05.897Z,19.65
2023-08-22T04:08:07.798Z,20.90
2023-08-22T04:13:09.618Z,22.45
2023-08-22T04:18:11.673Z,23.70
2023-08-22T04:23:13.636Z,30.65
2023-08-22T04:28:16.522Z,19.45
2023-08-22T04:33:19.311Z,17.88
2023-08-22T04:38:21.181Z,18.33
2023-08-22T04:43:23.047Z,26.33
2023-08-22T04:48:24.881Z,18.83
2023-08-22T04:53:26.708Z,16.23
2023-08-22T04:58:28.580Z,16.38
2023-08-22T05:03:30.378Z,17.38
2023-08-22T05:08:32.272Z,20.20
2023-08-22T05:13:34.166Z,22.30
2023-08-22T05:18:37.249Z,15.75
2023-08-22T05:23:39.329Z,15.15
2023-08-22T05:28:41.226Z,12.70
2023-08-22T05:33:43.119Z,12.27
2023-08-22T05:38:45.038Z,11.18
2023-08-22T05:43:46.923Z,11.63
2023-08-22T05:48:48.939Z,11.65
2023-08-22T05:53:50.869Z,11.52
2023-08-22T05:58:52.920Z,15.00
2023-08-22T06:03:54.894Z,15.15
2023-08-22T06:08:57.294Z,12.55
2023-08-22T06:13:59.118Z,13.52
2023-08-22T06:19:04.285Z,11.10
2023-08-22T06:24:07.191Z,17.27
2023-08-22T06:29:09.105Z,16.20
2023-08-22T06:34:11.492Z,14.10
2023-08-22T06:39:13.489Z,13.50
2023-08-22T06:44:15.607Z,19.20
2023-08-22T06:49:17.723Z,13.80
2023-08-22T06:59:35.522Z,21.23
2023-08-22T07:04:37.894Z,13.68
2023-08-22T07:09:41.040Z,14.45
2023-08-22T07:14:46.099Z,15.70
2023-08-22T07:19:47.984Z,15.57
2023-08-22T07:24:50.783Z,15.00
2023-08-22T07:29:53.187Z,13.45
2023-08-22T07:34:56.836Z,11.88
2023-08-22T07:40:01.751Z,12.30
2023-08-22T07:45:05.601Z,10.25
2023-08-22T07:50:09.589Z,10.63
2023-08-22T07:55:12.239Z,10.68
2023-08-22T08:00:16.318Z,10.98
2023-08-22T08:05:19.050Z,9.82
2023-08-22T08:10:21.857Z,10.98
2023-08-22T08:15:24.865Z,11.95
2023-08-22T08:20:28.809Z,15.50
2023-08-22T08:25:34.829Z,10.60
2023-08-22T08:30:37.481Z,10.77
2023-08-22T08:35:40.010Z,14.98
2023-08-22T08:40:43.678Z,14.52
2023-08-22T08:45:47.095Z,12.52
2023-08-22T08:50:51.065Z,9.57
2023-08-22T08:55:55.253Z,12.57
2023-08-22T09:01:08.783Z,12.63
2023-08-22T09:06:11.889Z,10.27
2023-08-22T09:11:14.573Z,6.80
2023-08-22T09:16:20.125Z,7.72
2023-08-22T09:21:22.907Z,9.15
2023-08-22T09:26:26.119Z,8.00
2023-08-22T09:31:28.949Z,7.82
2023-08-22T09:36:35.634Z,7.72
2023-08-22T09:41:40.813Z,6.10
2023-08-22T09:46:43.585Z,9.13
2023-08-22T09:51:48.767Z,14.05
2023-08-22T09:56:56.789Z,7.13
2023-08-22T10:02:01.004Z,7.88
2023-08-22T10:07:03.195Z,8.52
2023-08-22T10:12:10.893Z,11.07
2023-08-22T10:27:52.443Z,10.30
2023-08-22T10:33:28.740Z,10.77
2023-08-22T10:39:01.667Z,12.50
2023-08-22T10:44:05.361Z,10.13
2023-08-22T10:54:30.688Z,11.52
2023-08-22T10:59:35.940Z,7.73
2023-08-22T11:04:40.067Z,11.85
2023-08-22T11:09:42.110Z,8.77
2023-08-22T11:14:48.328Z,9.45
2023-08-22T11:19:50.848Z,8.30
2023-08-22T11:24:53.961Z,14.23
2023-08-22T11:29:59.249Z,12.25
2023-08-22T11:35:05.717Z,11.07
2023-08-22T11:40:08.831Z,10.20
2023-08-22T11:45:17.745Z,7.15
2023-08-22T11:50:31.300Z,6.22
2023-08-22T11:55:35.143Z,6.03
2023-08-22T12:00:37.457Z,10.00
2023-08-22T12:05:46.125Z,8.57
2023-08-22T12:10:53.208Z,10.45
2023-08-22T12:16:00.181Z,6.78
2023-08-22T12:21:06.481Z,7.97
2023-08-22T12:26:08.569Z,7.22
2023-08-22T12:31:27.549Z,7.45
2023-08-22T12:36:29.484Z,4.53
2023-08-22T12:46:38.991Z,7.95
2023-08-22T12:51:42.288Z,6.10
2023-08-22T12:56:48.688Z,4.95
2023-08-22T13:01:51.870Z,6.85
2023-08-22T13:06:53.875Z,4.32
2023-08-22T13:11:55.811Z,8.95
2023-08-22T13:17:04.594Z,4.40
2023-08-22T13:22:07.288Z,6.82
2023-08-22T13:27:09.707Z,6.60
2023-08-22T13:32:12.020Z,5.68
2023-08-22T13:42:34.114Z,4.65
2023-08-22T13:47:36.713Z,6.45
2023-08-22T13:52:44.924Z,5.90
2023-08-22T13:57:47.247Z,4.90
2023-08-22T14:02:51.151Z,5.60
2023-08-22T14:07:57.292Z,8.00
2023-08-22T14:13:08.765Z,7.07
2023-08-22T14:18:13.529Z,6.00
2023-08-22T14:23:15.439Z,7.97
2023-08-22T14:28:17.340Z,6.10
2023-08-22T14:33:19.437Z,7.40
2023-08-22T14:38:21.482Z,6.35
2023-08-22T14:43:23.684Z,6.93
2023-08-22T14:48:25.663Z,10.60
2023-08-22T14:53:28.924Z,5.93
2023-08-22T14:58:44.185Z,8.55
2023-08-22T15:03:46.695Z,7.28
2023-08-22T15:08:48.659Z,4.93
2023-08-22T15:13:50.602Z,6.18
2023-08-22T15:18:52.563Z,8.43
2023-08-22T15:28:56.056Z,6.43
2023-08-22T15:33:58.701Z,6.85
2023-08-22T15:39:00.528Z,6.20
2023-08-22T15:44:03.290Z,8.05
2023-08-22T15:49:05.332Z,8.15
2023-08-22T15:59:08.904Z,7.95
2023-08-22T16:04:10.879Z,7.07
2023-08-22T16:09:12.813Z,10.15
2023-08-22T16:14:15.070Z,10.43
2023-08-22T16:19:16.921Z,9.93
2023-08-22T16:24:19.834Z,10.05
2023-08-22T16:29:21.771Z,12.63
2023-08-22T16:39:25.376Z,8.00
2023-08-22T16:49:29.016Z,15.00
2023-08-22T16:59:32.771Z,8.82
2023-08-22T17:04:34.699Z,10.52
2023-08-22T17:09:36.757Z,9.70
2023-08-22T17:19:40.310Z,7.93
2023-08-22T17:24:42.156Z,7.90
2023-08-22T17:29:44.082Z,8.40
2023-08-22T17:34:45.916Z,7.88
2023-08-22T17:39:47.846Z,13.40
2023-08-22T17:49:53.343Z,9.43
2023-08-22T17:54:55.319Z,9.55
2023-08-22T17:59:57.181Z,12.60
2023-08-22T18:04:59.188Z,9.73
2023-08-22T18:15:02.974Z,11.98
2023-08-22T18:20:06.357Z,13.60
2023-08-22T18:25:08.470Z,12.35
2023-08-22T18:35:12.343Z,12.52
2023-08-22T18:40:14.401Z,14.70
2023-08-22T18:50:18.386Z,11.40
2023-08-22T18:55:20.302Z,10.60
2023-08-22T19:00:22.230Z,14.80
2023-08-22T19:10:25.892Z,13.93
2023-08-22T19:15:27.746Z,10.93
2023-08-22T19:20:29.728Z,13.82
2023-08-22T19:25:31.775Z,10.65
2023-08-22T19:30:33.683Z,11.25
2023-08-22T19:35:39.312Z,11.23
2023-08-22T19:40:44.622Z,14.10
2023-08-22T19:45:46.589Z,16.75
2023-08-22T19:50:48.531Z,14.02
2023-08-22T19:55:50.424Z,13.23
2023-08-22T20:00:55.122Z,11.70
2023-08-22T20:06:00.614Z,12.25
2023-08-22T20:11:02.595Z,12.93
2023-08-22T20:16:04.581Z,11.55
2023-08-22T20:21:06.495Z,10.50
2023-08-22T20:26:08.354Z,11.75
2023-08-22T20:31:11.871Z,12.80
2023-08-22T20:36:13.941Z,15.25
2023-08-22T20:41:15.811Z,9.65
2023-08-22T20:46:17.694Z,10.52
2023-08-22T20:51:19.559Z,10.52
2023-08-22T20:56:21.442Z,10.55
2023-08-22T21:01:23.422Z,11.40
2023-08-22T21:06:25.379Z,10.48
2023-08-22T21:11:27.321Z,11.20
2023-08-22T21:16:30.808Z,10.02
2023-08-22T21:21:34.774Z,12.38
2023-08-22T21:26:36.627Z,12.60
2023-08-22T21:31:38.604Z,8.05
2023-08-22T21:41:42.163Z,7.90
2023-08-22T21:46:44.073Z,11.50
2023-08-22T21:51:45.973Z,7.80
2023-08-22T21:56:47.883Z,8.45
2023-08-22T22:01:49.897Z,7.82
2023-08-22T22:06:51.916Z,9.30
2023-08-22T22:11:53.772Z,9.85
2023-08-22T22:16:55.648Z,9.95
2023-08-22T22:21:57.631Z,11.00
2023-08-22T22:26:59.535Z,7.28
2023-08-22T22:32:01.413Z,9.25
2023-08-22T22:37:03.224Z,9.38
2023-08-22T22:42:05.365Z,7.43
2023-08-22T22:52:08.906Z,9.77
2023-08-22T22:57:10.758Z,8.07
2023-08-22T23:02:12.668Z,9.88
2023-08-22T23:07:14.520Z,10.32
2023-08-22T23:12:16.461Z,10.15
2023-08-22T23:17:18.629Z,9.50
2023-08-22T23:27:22.162Z,11.25
2023-08-22T23:32:29.486Z,10.55
2023-08-22T23:37:31.616Z,6.85
2023-08-22T23:42:34.973Z,8.38
2023-08-22T23:47:37.005Z,11.02
2023-08-22T23:52:39.041Z,9.73
2023-08-22T23:57:40.900Z,10.35
